Orbital elements of COSMOS 2251 DEB
| Launched | 15 June 1993 |
| Flight ended | – |
| Launch site | Plesetsk Missile and Space Complex, Russia |
| Owner | Commonwealth of Independent States (former USSR) |
| NORAD ID | 36053 |
| Date fetched |
Epoch osculation |
Inc. [°] |
Ecc. | RA asc node [hr] |
Arg Peri. [°] |
Mean anom [°] |
Mean motion [rev/day] |
Abs. mag |
| Date fetched |
Epoch osculation |
Inc. [°] |
Ecc. | RA asc node [hr] |
Arg Peri. [°] |
Mean anom [°] |
Mean motion [rev/day] |
Abs. mag |
| 2026 May 08 17:57 | 2026 May 05 13:42:51 | 73.8691 | 0.00305 | 15.7457 | 154.4331 | 205.8348 | 14.59345 | – |
| 2026 May 07 17:58 | 2026 May 05 13:42:51 | 73.8691 | 0.00305 | 15.7457 | 154.4331 | 205.8348 | 14.59345 | – |
| 2026 May 06 17:57 | 2026 May 05 13:42:51 | 73.8691 | 0.00305 | 15.7457 | 154.4331 | 205.8348 | 14.59345 | – |
| 2026 May 05 17:57 | 2026 May 05 13:42:51 | 73.8691 | 0.00305 | 15.7457 | 154.4331 | 205.8348 | 14.59345 | – |
| 2026 May 04 17:57 | 2026 Apr 29 14:34:24 | 73.8710 | 0.00307 | 16.5114 | 167.4187 | 205.8348 | 14.59345 | – |
| 2026 May 03 17:57 | 2026 Apr 29 14:34:24 | 73.8710 | 0.00307 | 16.5114 | 167.4187 | 205.8348 | 14.59345 | – |
| 2026 May 02 17:57 | 2026 Apr 29 14:34:24 | 73.8710 | 0.00307 | 16.5114 | 167.4187 | 205.8348 | 14.59345 | – |
| 2026 May 01 17:56 | 2026 Apr 29 14:34:24 | 73.8710 | 0.00307 | 16.5114 | 167.4187 | 205.8348 | 14.59345 | – |
| 2026 Apr 30 17:56 | 2026 Apr 29 14:34:24 | 73.8710 | 0.00307 | 16.5114 | 167.4187 | 205.8348 | 14.59345 | – |
| 2026 Apr 29 17:57 | 2026 Apr 23 02:15:33 | 73.8691 | 0.00313 | 17.3472 | 181.1558 | 205.8348 | 14.59345 | – |
| 2026 Apr 28 17:56 | 2026 Apr 23 02:15:33 | 73.8691 | 0.00313 | 17.3472 | 181.1558 | 205.8348 | 14.59345 | – |
| 2026 Apr 27 17:58 | 2026 Apr 23 02:15:33 | 73.8691 | 0.00313 | 17.3472 | 181.1558 | 205.8348 | 14.59345 | – |
| 2026 Apr 26 17:58 | 2026 Apr 23 02:15:33 | 73.8691 | 0.00313 | 17.3472 | 181.1558 | 205.8348 | 14.59345 | – |
| 2026 Apr 25 17:58 | 2026 Apr 23 02:15:33 | 73.8691 | 0.00313 | 17.3472 | 181.1558 | 205.8348 | 14.59345 | – |
| 2026 Apr 24 17:59 | 2026 Apr 23 02:15:33 | 73.8691 | 0.00313 | 17.3472 | 181.1558 | 205.8348 | 14.59345 | – |
| 2026 Apr 23 17:57 | 2026 Apr 16 10:38:43 | 73.8679 | 0.00318 | 18.2008 | 195.1755 | 205.8348 | 14.59345 | – |
| 2026 Apr 22 17:57 | 2026 Apr 16 10:38:43 | 73.8679 | 0.00318 | 18.2008 | 195.1755 | 205.8348 | 14.59345 | – |
| 2026 Apr 21 17:57 | 2026 Apr 16 10:38:43 | 73.8679 | 0.00318 | 18.2008 | 195.1755 | 205.8348 | 14.59345 | – |
| 2026 Apr 20 17:57 | 2026 Apr 16 10:38:43 | 73.8679 | 0.00318 | 18.2008 | 195.1755 | 205.8348 | 14.59345 | – |
| 2026 Apr 19 17:58 | 2026 Apr 16 10:38:43 | 73.8679 | 0.00318 | 18.2008 | 195.1755 | 205.8348 | 14.59345 | – |
| 2026 Apr 18 17:56 | 2026 Apr 11 12:09:55 | 73.8680 | 0.00320 | 18.8343 | 205.4748 | 205.8348 | 14.59345 | – |
| 2026 Apr 16 17:57 | 2026 Apr 11 12:09:55 | 73.8680 | 0.00320 | 18.8343 | 205.4748 | 205.8348 | 14.59345 | – |
| 2026 Apr 14 17:57 | 2026 Apr 11 12:09:55 | 73.8680 | 0.00320 | 18.8343 | 205.4748 | 205.8348 | 14.59345 | – |
| 2026 Apr 13 17:57 | 2026 Apr 11 12:09:55 | 73.8680 | 0.00320 | 18.8343 | 205.4748 | 205.8348 | 14.59345 | – |
| 2026 Apr 12 17:57 | 2026 Apr 07 12:43:14 | 73.8694 | 0.00322 | 19.3446 | 213.7709 | 205.8348 | 14.59345 | – |
| 2026 Apr 11 17:57 | 2026 Apr 07 12:43:14 | 73.8694 | 0.00322 | 19.3446 | 213.7709 | 205.8348 | 14.59345 | – |